N979AE MZBZ-MSLP
Flight info
| Callsign | N979AE |
|---|---|
| Flight time | 0h 41m |
| Altitude | 30000 |
| Route | AVAKO UB764 URNOS URNOS2 |
| Aircraft | C750/M-SBDE3FGHRWXY/S |
Departure
| Time | 2026-04-26 18:25 |
|---|---|
| Airport | Philip S. W. Goldson International Airport (MZBZ) |
Arrival
| Time | 2026-04-26 19:07 |
|---|---|
| Airport | El Salvador International Airport Saint Óscar Arnulfo Romero y Galdámez (MSLP) |
| Time | Latitude | Longitude | Altitude | Speed | Heading |
|---|---|---|---|---|---|
| 2026-04-26 18:07 | 17.53670 | -88.30894 | 14 ft | 0 kts | 76° |
| 2026-04-26 18:19 | 17.53671 | -88.30893 | 23 ft | 2 kts | 77° |
| 2026-04-26 18:19 | 17.53673 | -88.30854 | 14 ft | 7 kts | 85° |
| 2026-04-26 18:20 | 17.53702 | -88.30840 | 14 ft | 5 kts | 330° |
| 2026-04-26 18:20 | 17.53714 | -88.30866 | 14 ft | 4 kts | 289° |
| 2026-04-26 18:20 | 17.53721 | -88.30893 | 14 ft | 4 kts | 277° |
| 2026-04-26 18:20 | 17.53721 | -88.30902 | 14 ft | 3 kts | 268° |
| 2026-04-26 18:21 | 17.53703 | -88.30976 | 14 ft | 10 kts | 256° |
| 2026-04-26 18:21 | 17.53684 | -88.31057 | 14 ft | 14 kts | 257° |
| 2026-04-26 18:21 | 17.53661 | -88.31165 | 13 ft | 16 kts | 257° |
| 2026-04-26 18:21 | 17.53636 | -88.31278 | 13 ft | 16 kts | 257° |
| 2026-04-26 18:22 | 17.53611 | -88.31386 | 13 ft | 15 kts | 257° |
| 2026-04-26 18:22 | 17.53588 | -88.31490 | 13 ft | 14 kts | 257° |
| 2026-04-26 18:22 | 17.53566 | -88.31590 | 13 ft | 14 kts | 257° |
| 2026-04-26 18:22 | 17.53545 | -88.31684 | 14 ft | 13 kts | 257° |
| 2026-04-26 18:23 | 17.53549 | -88.31768 | 14 ft | 11 kts | 318° |
| 2026-04-26 18:23 | 17.53611 | -88.31783 | 14 ft | 5 kts | 350° |
| 2026-04-26 18:23 | 17.53650 | -88.31792 | 14 ft | 7 kts | 347° |
| 2026-04-26 18:23 | 17.53696 | -88.31781 | 14 ft | 7 kts | 71° |
| 2026-04-26 18:24 | 17.53700 | -88.31759 | 13 ft | 0 kts | 76° |
| 2026-04-26 18:24 | 17.53701 | -88.31755 | 13 ft | 3 kts | 76° |
| 2026-04-26 18:24 | 17.53737 | -88.31587 | 13 ft | 70 kts | 78° |
| 2026-04-26 18:24 | 17.53851 | -88.31072 | 14 ft | 140 kts | 77° |
| 2026-04-26 18:25 | 17.54084 | -88.29958 | 354 ft | 170 kts | 81° |
| 2026-04-26 18:25 | 17.54465 | -88.28189 | 974 ft | 207 kts | 78° |
| 2026-04-26 18:25 | 17.54822 | -88.26624 | 1615 ft | 235 kts | 80° |
| 2026-04-26 18:25 | 17.54840 | -88.25436 | 2051 ft | 248 kts | 101° |
| 2026-04-26 18:26 | 17.53832 | -88.23329 | 3527 ft | 253 kts | 133° |
| 2026-04-26 18:26 | 17.52352 | -88.22294 | 4553 ft | 259 kts | 150° |
| 2026-04-26 18:26 | 17.51268 | -88.21695 | 5240 ft | 262 kts | 151° |
| 2026-04-26 18:26 | 17.49624 | -88.20798 | 6130 ft | 272 kts | 151° |
| 2026-04-26 18:27 | 17.47947 | -88.19872 | 7010 ft | 279 kts | 150° |
| 2026-04-26 18:27 | 17.46204 | -88.18902 | 7884 ft | 288 kts | 150° |
| 2026-04-26 18:27 | 17.44388 | -88.17895 | 7984 ft | 297 kts | 150° |
| 2026-04-26 18:27 | 17.42491 | -88.17052 | 7930 ft | 303 kts | 165° |
| 2026-04-26 18:28 | 17.40399 | -88.17111 | 7933 ft | 301 kts | 193° |
| 2026-04-26 18:28 | 17.38487 | -88.17988 | 7994 ft | 301 kts | 207° |
| 2026-04-26 18:28 | 17.36661 | -88.19039 | 7996 ft | 301 kts | 209° |
| 2026-04-26 18:28 | 17.34823 | -88.20097 | 7997 ft | 304 kts | 208° |
| 2026-04-26 18:29 | 17.32932 | -88.21154 | 8977 ft | 302 kts | 208° |
| 2026-04-26 18:29 | 17.31084 | -88.22188 | 10120 ft | 305 kts | 209° |
| 2026-04-26 18:29 | 17.29142 | -88.23287 | 10520 ft | 330 kts | 209° |
| 2026-04-26 18:29 | 17.27039 | -88.24475 | 10734 ft | 357 kts | 209° |
| 2026-04-26 18:30 | 17.24774 | -88.25748 | 11034 ft | 377 kts | 208° |
| 2026-04-26 18:30 | 17.22465 | -88.27044 | 11881 ft | 378 kts | 208° |
| 2026-04-26 18:30 | 17.20137 | -88.28355 | 12618 ft | 383 kts | 208° |
| 2026-04-26 18:30 | 17.17807 | -88.29666 | 13344 ft | 387 kts | 208° |
| 2026-04-26 18:31 | 17.15422 | -88.31006 | 14036 ft | 391 kts | 208° |
| 2026-04-26 18:31 | 17.13010 | -88.32360 | 14696 ft | 395 kts | 208° |
| 2026-04-26 18:31 | 17.10466 | -88.33491 | 15241 ft | 400 kts | 199° |
| 2026-04-26 18:31 | 17.07811 | -88.34405 | 15934 ft | 403 kts | 198° |
| 2026-04-26 18:32 | 17.05132 | -88.35326 | 16601 ft | 408 kts | 199° |
| 2026-04-26 18:32 | 17.02435 | -88.36304 | 17281 ft | 412 kts | 200° |
| 2026-04-26 18:32 | 16.99718 | -88.37296 | 18040 ft | 415 kts | 200° |
| 2026-04-26 18:32 | 16.96965 | -88.38271 | 18686 ft | 420 kts | 200° |
| 2026-04-26 18:33 | 16.94185 | -88.39248 | 19417 ft | 422 kts | 200° |
| 2026-04-26 18:33 | 16.91404 | -88.40241 | 20151 ft | 424 kts | 201° |
| 2026-04-26 18:33 | 16.88606 | -88.41240 | 20856 ft | 427 kts | 200° |
| 2026-04-26 18:33 | 16.85678 | -88.41879 | 21496 ft | 432 kts | 189° |
| 2026-04-26 18:34 | 16.82690 | -88.42302 | 22243 ft | 435 kts | 190° |
| 2026-04-26 18:34 | 16.79688 | -88.42770 | 22968 ft | 437 kts | 191° |
| 2026-04-26 18:34 | 16.76671 | -88.43254 | 23652 ft | 441 kts | 191° |
| 2026-04-26 18:34 | 16.73619 | -88.43717 | 24183 ft | 446 kts | 190° |
| 2026-04-26 18:35 | 16.70533 | -88.44173 | 24712 ft | 450 kts | 190° |
| 2026-04-26 18:35 | 16.67421 | -88.44647 | 25245 ft | 455 kts | 191° |
| 2026-04-26 18:35 | 16.64278 | -88.45134 | 25791 ft | 459 kts | 191° |
| 2026-04-26 18:35 | 16.61098 | -88.45620 | 26318 ft | 464 kts | 191° |
| 2026-04-26 18:36 | 16.57933 | -88.46098 | 26840 ft | 468 kts | 191° |
| 2026-04-26 18:36 | 16.54693 | -88.46590 | 27365 ft | 473 kts | 191° |
| 2026-04-26 18:36 | 16.51419 | -88.47091 | 27881 ft | 478 kts | 191° |
| 2026-04-26 18:36 | 16.48115 | -88.47595 | 28354 ft | 483 kts | 191° |
| 2026-04-26 18:37 | 16.44767 | -88.48103 | 28828 ft | 488 kts | 191° |
| 2026-04-26 18:37 | 16.41391 | -88.48615 | 29339 ft | 492 kts | 192° |
| 2026-04-26 18:37 | 16.38012 | -88.49128 | 29807 ft | 490 kts | 192° |
| 2026-04-26 18:37 | 16.34602 | -88.49648 | 29850 ft | 497 kts | 192° |
| 2026-04-26 18:38 | 16.27700 | -88.50698 | 29830 ft | 513 kts | 191° |
| 2026-04-26 18:38 | 16.24125 | -88.51242 | 29841 ft | 525 kts | 191° |
| 2026-04-26 18:38 | 16.20466 | -88.51795 | 29852 ft | 537 kts | 191° |
| 2026-04-26 18:39 | 16.16730 | -88.52361 | 29836 ft | 548 kts | 191° |
| 2026-04-26 18:39 | 16.12925 | -88.52939 | 29843 ft | 557 kts | 191° |
| 2026-04-26 18:39 | 16.05204 | -88.54106 | 29834 ft | 563 kts | 191° |
| 2026-04-26 18:40 | 15.97436 | -88.55283 | 29825 ft | 564 kts | 191° |
| 2026-04-26 18:40 | 15.89663 | -88.56459 | 29832 ft | 564 kts | 191° |
| 2026-04-26 18:41 | 15.81954 | -88.57624 | 29829 ft | 562 kts | 191° |
| 2026-04-26 18:41 | 15.74232 | -88.58806 | 29821 ft | 559 kts | 192° |
| 2026-04-26 18:42 | 15.66734 | -88.60762 | 29830 ft | 555 kts | 197° |
| 2026-04-26 18:42 | 15.59249 | -88.62736 | 29829 ft | 554 kts | 197° |
| 2026-04-26 18:43 | 15.51785 | -88.64763 | 29834 ft | 554 kts | 197° |
| 2026-04-26 18:43 | 15.44313 | -88.66754 | 29881 ft | 554 kts | 197° |
| 2026-04-26 18:44 | 15.36849 | -88.68761 | 29881 ft | 554 kts | 197° |
| 2026-04-26 18:44 | 15.29374 | -88.70760 | 29918 ft | 555 kts | 197° |
| 2026-04-26 18:45 | 15.21907 | -88.72760 | 29911 ft | 554 kts | 197° |
| 2026-04-26 18:45 | 15.14434 | -88.74717 | 29943 ft | 554 kts | 195° |
| 2026-04-26 18:46 | 15.06930 | -88.76573 | 29975 ft | 554 kts | 196° |
| 2026-04-26 18:46 | 14.99504 | -88.78495 | 29976 ft | 554 kts | 196° |
| 2026-04-26 18:47 | 14.92014 | -88.80367 | 30012 ft | 554 kts | 196° |
| 2026-04-26 18:47 | 14.84543 | -88.82278 | 30007 ft | 552 kts | 195° |
| 2026-04-26 18:48 | 14.77085 | -88.84154 | 30014 ft | 551 kts | 195° |
| 2026-04-26 18:48 | 14.69644 | -88.86044 | 30011 ft | 550 kts | 195° |
| 2026-04-26 18:49 | 14.62305 | -88.87892 | 29410 ft | 520 kts | 195° |
| 2026-04-26 18:49 | 14.58851 | -88.88763 | 28734 ft | 505 kts | 195° |
| 2026-04-26 18:49 | 14.55443 | -88.89631 | 28068 ft | 504 kts | 195° |
| 2026-04-26 18:50 | 14.52043 | -88.90493 | 27407 ft | 501 kts | 195° |
| 2026-04-26 18:50 | 14.48670 | -88.91341 | 26764 ft | 497 kts | 195° |
| 2026-04-26 18:50 | 14.45327 | -88.92181 | 26113 ft | 492 kts | 195° |
| 2026-04-26 18:50 | 14.42011 | -88.93020 | 25469 ft | 488 kts | 195° |
| 2026-04-26 18:51 | 14.38727 | -88.93850 | 24827 ft | 484 kts | 194° |
| 2026-04-26 18:51 | 14.35468 | -88.94671 | 24179 ft | 480 kts | 194° |
| 2026-04-26 18:51 | 14.32280 | -88.95473 | 23541 ft | 476 kts | 194° |
| 2026-04-26 18:51 | 14.29083 | -88.96284 | 22882 ft | 470 kts | 194° |
| 2026-04-26 18:52 | 14.25914 | -88.97108 | 22260 ft | 468 kts | 194° |
| 2026-04-26 18:52 | 14.23789 | -88.97662 | 21842 ft | 464 kts | 194° |
| 2026-04-26 18:52 | 14.19669 | -88.98721 | 21013 ft | 458 kts | 194° |
| 2026-04-26 18:52 | 14.16599 | -88.99504 | 20417 ft | 453 kts | 194° |
| 2026-04-26 18:53 | 14.13557 | -89.00287 | 19826 ft | 449 kts | 194° |
| 2026-04-26 18:53 | 14.10539 | -89.01067 | 19233 ft | 445 kts | 194° |
| 2026-04-26 18:53 | 14.07537 | -89.01803 | 18642 ft | 441 kts | 195° |
| 2026-04-26 18:53 | 14.04505 | -89.02188 | 18006 ft | 440 kts | 178° |
| 2026-04-26 18:54 | 14.01523 | -89.01636 | 17456 ft | 435 kts | 163° |
| 2026-04-26 18:54 | 13.98802 | -89.00341 | 16890 ft | 429 kts | 147° |
| 2026-04-26 18:54 | 13.96518 | -88.98408 | 16337 ft | 422 kts | 133° |
| 2026-04-26 18:54 | 13.94522 | -88.96218 | 15805 ft | 418 kts | 131° |
| 2026-04-26 18:55 | 13.92540 | -88.94045 | 15235 ft | 414 kts | 132° |
| 2026-04-26 18:55 | 13.90558 | -88.91913 | 14677 ft | 410 kts | 132° |
| 2026-04-26 18:55 | 13.88600 | -88.89808 | 14136 ft | 405 kts | 132° |
| 2026-04-26 18:55 | 13.86698 | -88.87741 | 13587 ft | 401 kts | 131° |
| 2026-04-26 18:56 | 13.84787 | -88.85663 | 13046 ft | 397 kts | 131° |
| 2026-04-26 18:56 | 13.82892 | -88.83613 | 12527 ft | 393 kts | 131° |
| 2026-04-26 18:56 | 13.81016 | -88.81588 | 12004 ft | 385 kts | 131° |
| 2026-04-26 18:56 | 13.79244 | -88.79674 | 11513 ft | 356 kts | 131° |
| 2026-04-26 18:57 | 13.77592 | -88.77887 | 11046 ft | 333 kts | 131° |
| 2026-04-26 18:57 | 13.76557 | -88.76767 | 10753 ft | 320 kts | 131° |
| 2026-04-26 18:57 | 13.74573 | -88.74619 | 10226 ft | 301 kts | 131° |
| 2026-04-26 18:57 | 13.73140 | -88.73085 | 9901 ft | 295 kts | 133° |
| 2026-04-26 18:58 | 13.71532 | -88.71764 | 9494 ft | 297 kts | 144° |
| 2026-04-26 18:58 | 13.69714 | -88.70750 | 9108 ft | 297 kts | 154° |
| 2026-04-26 18:58 | 13.67756 | -88.70082 | 8718 ft | 296 kts | 165° |
| 2026-04-26 18:58 | 13.65724 | -88.69756 | 8330 ft | 296 kts | 174° |
| 2026-04-26 18:59 | 13.63667 | -88.69807 | 7921 ft | 295 kts | 185° |
| 2026-04-26 18:59 | 13.61659 | -88.70231 | 7546 ft | 295 kts | 195° |
| 2026-04-26 18:59 | 13.59760 | -88.71008 | 7158 ft | 293 kts | 205° |
| 2026-04-26 18:59 | 13.58039 | -88.72102 | 6764 ft | 289 kts | 216° |
| 2026-04-26 19:00 | 13.56538 | -88.73476 | 6379 ft | 288 kts | 226° |
| 2026-04-26 19:00 | 13.55287 | -88.75092 | 5978 ft | 288 kts | 236° |
| 2026-04-26 19:00 | 13.54346 | -88.76855 | 5590 ft | 284 kts | 245° |
| 2026-04-26 19:00 | 13.53664 | -88.78730 | 5216 ft | 274 kts | 250° |
| 2026-04-26 19:01 | 13.53023 | -88.80529 | 4858 ft | 263 kts | 248° |
| 2026-04-26 19:01 | 13.52395 | -88.82257 | 4495 ft | 254 kts | 248° |
| 2026-04-26 19:01 | 13.51797 | -88.83935 | 4158 ft | 246 kts | 248° |
| 2026-04-26 19:01 | 13.51222 | -88.85564 | 3831 ft | 239 kts | 248° |
| 2026-04-26 19:02 | 13.50660 | -88.87146 | 3519 ft | 234 kts | 249° |
| 2026-04-26 19:02 | 13.50106 | -88.88699 | 3220 ft | 230 kts | 249° |
| 2026-04-26 19:02 | 13.49577 | -88.90189 | 2868 ft | 205 kts | 248° |
| 2026-04-26 19:02 | 13.49266 | -88.91068 | 2643 ft | 184 kts | 249° |
| 2026-04-26 19:03 | 13.48743 | -88.92535 | 2345 ft | 148 kts | 250° |
| 2026-04-26 19:03 | 13.48411 | -88.93465 | 2164 ft | 132 kts | 250° |
| 2026-04-26 19:03 | 13.48102 | -88.94329 | 2007 ft | 127 kts | 249° |
| 2026-04-26 19:03 | 13.47802 | -88.95173 | 1860 ft | 125 kts | 249° |
| 2026-04-26 19:04 | 13.47502 | -88.96013 | 1695 ft | 125 kts | 249° |
| 2026-04-26 19:04 | 13.47211 | -88.96832 | 1548 ft | 120 kts | 248° |
| 2026-04-26 19:04 | 13.46924 | -88.97638 | 1407 ft | 121 kts | 249° |
| 2026-04-26 19:04 | 13.46630 | -88.98464 | 1242 ft | 124 kts | 249° |
| 2026-04-26 19:05 | 13.46054 | -89.00081 | 952 ft | 119 kts | 247° |
| 2026-04-26 19:05 | 13.45768 | -89.00881 | 797 ft | 120 kts | 248° |
| 2026-04-26 19:05 | 13.45485 | -89.01675 | 633 ft | 117 kts | 245° |
| 2026-04-26 19:06 | 13.45208 | -89.02475 | 492 ft | 120 kts | 249° |
| 2026-04-26 19:06 | 13.44924 | -89.03281 | 334 ft | 120 kts | 248° |
| 2026-04-26 19:06 | 13.44632 | -89.04083 | 166 ft | 120 kts | 248° |
| 2026-04-26 19:06 | 13.44362 | -89.04823 | 100 ft | 96 kts | 250° |
| 2026-04-26 19:07 | 13.44214 | -89.05246 | 92 ft | 36 kts | 250° |
| 2026-04-26 19:07 | 13.44257 | -89.05344 | 92 ft | 15 kts | 339° |
| 2026-04-26 19:07 | 13.44347 | -89.05369 | 94 ft | 11 kts | 27° |
| 2026-04-26 19:07 | 13.44379 | -89.05304 | 94 ft | 10 kts | 70° |
| 2026-04-26 19:08 | 13.44402 | -89.05239 | 96 ft | 11 kts | 70° |
| 2026-04-26 19:08 | 13.44431 | -89.05157 | 96 ft | 14 kts | 70° |
| 2026-04-26 19:08 | 13.44468 | -89.05051 | 96 ft | 17 kts | 70° |
| 2026-04-26 19:08 | 13.44513 | -89.04923 | 98 ft | 21 kts | 70° |
| 2026-04-26 19:09 | 13.44568 | -89.04771 | 99 ft | 24 kts | 69° |
| 2026-04-26 19:09 | 13.44631 | -89.04600 | 101 ft | 26 kts | 69° |
| 2026-04-26 19:09 | 13.44682 | -89.04468 | 103 ft | 9 kts | 45° |
| 2026-04-26 19:09 | 13.44735 | -89.04475 | 103 ft | 8 kts | 339° |
| 2026-04-26 19:10 | 13.44785 | -89.04493 | 103 ft | 8 kts | 347° |
| 2026-04-26 19:10 | 13.44833 | -89.04493 | 103 ft | 6 kts | 32° |
| 2026-04-26 19:10 | 13.44847 | -89.04468 | 103 ft | 0 kts | 69° |